createdAt,value
2022-09-24T00:01:27.101Z,12.90
2022-09-24T00:04:00.437Z,13.00
2022-09-24T00:06:28.908Z,13.00
2022-09-24T00:08:57.004Z,13.00
2022-09-24T00:11:26.261Z,12.90
2022-09-24T00:13:53.883Z,12.90
2022-09-24T00:16:22.218Z,12.90
2022-09-24T00:18:49.020Z,12.90
2022-09-24T00:21:21.389Z,12.90
2022-09-24T00:23:57.410Z,12.90
2022-09-24T00:26:43.236Z,12.90
2022-09-24T00:29:12.261Z,12.80
2022-09-24T00:31:39.336Z,12.90
2022-09-24T00:34:06.280Z,12.90
2022-09-24T00:36:33.127Z,12.80
2022-09-24T00:39:00.499Z,12.70
2022-09-24T00:41:30.334Z,12.70
2022-09-24T00:43:58.297Z,12.60
2022-09-24T00:46:32.334Z,12.50
2022-09-24T00:49:04.768Z,12.60
2022-09-24T00:51:33.273Z,12.60
2022-09-24T00:54:05.542Z,12.60
2022-09-24T00:56:36.524Z,12.60
2022-09-24T00:59:05.063Z,12.70
2022-09-24T01:01:31.800Z,12.60
2022-09-24T01:04:00.072Z,12.60
2022-09-24T01:06:27.271Z,12.60
2022-09-24T01:08:56.488Z,12.70
2022-09-24T01:11:48.776Z,12.70
2022-09-24T01:14:51.113Z,12.70
2022-09-24T01:17:27.688Z,12.70
2022-09-24T01:19:57.010Z,12.60
2022-09-24T01:22:38.604Z,12.60
2022-09-24T01:25:14.037Z,12.60
2022-09-24T01:28:04.736Z,12.50
2022-09-24T01:30:34.974Z,12.40
2022-09-24T01:33:04.513Z,12.40
2022-09-24T01:35:38.790Z,12.40
2022-09-24T01:38:11.886Z,12.50
2022-09-24T01:40:40.396Z,12.50
2022-09-24T01:43:09.526Z,12.50
2022-09-24T01:45:38.545Z,12.50
2022-09-24T01:48:05.937Z,12.50
2022-09-24T01:50:40.425Z,12.40
2022-09-24T01:53:29.987Z,12.30
2022-09-24T01:56:07.266Z,12.30
2022-09-24T01:58:40.515Z,12.30
2022-09-24T02:01:11.512Z,12.20
2022-09-24T02:03:43.955Z,12.10
2022-09-24T02:06:25.936Z,12.00
2022-09-24T02:08:52.567Z,12.10
2022-09-24T02:11:22.454Z,12.10
2022-09-24T02:14:04.285Z,12.00
2022-09-24T02:16:37.583Z,12.00
2022-09-24T02:19:08.726Z,12.00
2022-09-24T02:21:37.452Z,12.00
2022-09-24T02:24:10.743Z,12.00
2022-09-24T02:26:37.548Z,12.00
2022-09-24T02:29:05.273Z,11.80
2022-09-24T02:31:38.616Z,11.90
2022-09-24T02:34:23.357Z,11.90
2022-09-24T02:36:59.666Z,11.90
2022-09-24T02:39:26.842Z,11.90
2022-09-24T02:41:54.837Z,11.90
2022-09-24T02:44:22.279Z,11.90
2022-09-24T02:46:50.651Z,11.80
2022-09-24T02:49:18.149Z,11.80
2022-09-24T02:51:44.930Z,11.80
2022-09-24T02:54:11.821Z,11.80
2022-09-24T02:56:38.560Z,11.70
2022-09-24T02:59:05.285Z,11.70
2022-09-24T03:01:33.509Z,11.70
2022-09-24T03:04:01.343Z,11.70
2022-09-24T03:06:28.527Z,11.70
2022-09-24T03:08:55.143Z,11.60
2022-09-24T03:11:23.015Z,11.40
2022-09-24T03:13:50.242Z,11.30
2022-09-24T03:16:18.446Z,11.30
2022-09-24T03:18:47.390Z,11.30
2022-09-24T03:21:16.397Z,11.20
2022-09-24T03:23:43.269Z,11.30
2022-09-24T03:26:10.242Z,11.30
2022-09-24T03:28:36.833Z,11.20
2022-09-24T03:31:03.634Z,11.10
2022-09-24T03:33:34.464Z,11.10
2022-09-24T03:36:04.243Z,11.20
2022-09-24T03:38:32.135Z,11.20
2022-09-24T03:41:00.056Z,11.20
2022-09-24T03:43:27.093Z,11.20
2022-09-24T03:45:54.088Z,11.20
2022-09-24T03:48:22.183Z,11.20
2022-09-24T03:50:49.601Z,11.20
2022-09-24T03:53:17.901Z,11.20
2022-09-24T03:55:56.087Z,11.30
2022-09-24T03:58:23.460Z,11.30
2022-09-24T04:00:54.067Z,11.20
2022-09-24T04:03:22.082Z,11.30
2022-09-24T04:05:51.195Z,11.30
2022-09-24T04:08:19.242Z,11.40
2022-09-24T04:10:47.009Z,11.40
2022-09-24T04:13:13.792Z,11.30
2022-09-24T04:15:40.458Z,11.30
2022-09-24T04:18:07.098Z,11.30
2022-09-24T04:20:34.689Z,11.30
2022-09-24T04:23:01.533Z,11.10
2022-09-24T04:25:31.185Z,11.00
2022-09-24T04:28:00.148Z,11.10
2022-09-24T04:30:28.041Z,11.10
2022-09-24T04:32:54.682Z,11.00
2022-09-24T04:35:24.252Z,10.80
2022-09-24T04:37:50.863Z,10.90
2022-09-24T04:40:18.132Z,10.90
2022-09-24T04:42:46.225Z,11.00
2022-09-24T04:45:19.888Z,11.00
2022-09-24T04:47:55.965Z,11.10
2022-09-24T04:50:23.100Z,11.00
2022-09-24T04:52:49.688Z,11.00
2022-09-24T04:55:16.437Z,10.80
2022-09-24T04:57:44.561Z,10.80
2022-09-24T05:00:15.348Z,10.80
2022-09-24T05:02:43.428Z,10.80
2022-09-24T05:05:11.359Z,10.70
2022-09-24T05:07:38.440Z,10.70
2022-09-24T05:10:06.495Z,10.70
2022-09-24T05:12:35.275Z,10.80
2022-09-24T05:15:02.061Z,10.80
2022-09-24T05:17:28.765Z,10.90
2022-09-24T05:19:57.681Z,10.90
2022-09-24T05:22:26.003Z,10.90
2022-09-24T05:24:52.672Z,10.90
2022-09-24T05:27:19.613Z,10.90
2022-09-24T05:29:46.179Z,10.90
2022-09-24T05:32:15.407Z,10.90
2022-09-24T05:34:46.076Z,10.90
2022-09-24T05:37:14.099Z,11.00
2022-09-24T05:39:41.017Z,11.00
2022-09-24T05:42:16.178Z,11.00
2022-09-24T05:44:44.257Z,10.90
2022-09-24T05:47:13.671Z,10.90
2022-09-24T05:49:40.251Z,10.70
2022-09-24T05:52:06.862Z,10.80
2022-09-24T05:54:33.502Z,10.90
2022-09-24T05:57:00.112Z,10.90
2022-09-24T05:59:26.785Z,10.90
2022-09-24T06:01:54.301Z,11.00
2022-09-24T06:04:20.930Z,11.10
2022-09-24T06:06:47.532Z,11.00
2022-09-24T06:09:14.570Z,11.10
2022-09-24T06:11:42.058Z,11.10
2022-09-24T06:14:09.832Z,11.10
2022-09-24T06:16:36.827Z,11.10
2022-09-24T06:19:03.520Z,11.10
2022-09-24T06:21:30.447Z,11.20
2022-09-24T06:23:57.329Z,11.30
2022-09-24T06:26:26.118Z,11.20
2022-09-24T06:28:52.784Z,11.10
2022-09-24T06:31:19.757Z,11.20
2022-09-24T06:33:46.708Z,11.30
2022-09-24T06:36:13.347Z,11.40
2022-09-24T06:38:40.570Z,11.50
2022-09-24T06:41:07.729Z,11.50
2022-09-24T06:43:34.901Z,11.50
2022-09-24T06:46:03.199Z,11.50
2022-09-24T06:48:31.043Z,11.60
2022-09-24T06:50:57.885Z,11.60
2022-09-24T06:53:24.858Z,11.60
2022-09-24T06:55:51.496Z,11.60
2022-09-24T06:58:20.602Z,11.60
2022-09-24T07:00:58.115Z,11.70
2022-09-24T07:03:25.854Z,11.70
2022-09-24T07:05:52.868Z,11.70
2022-09-24T07:08:19.486Z,11.80
2022-09-24T07:10:49.134Z,11.80
2022-09-24T07:13:16.636Z,11.80
2022-09-24T07:15:44.321Z,11.80
2022-09-24T07:18:11.941Z,11.90
2022-09-24T07:20:38.772Z,12.00
2022-09-24T07:23:07.045Z,12.00
2022-09-24T07:25:33.935Z,12.00
2022-09-24T07:28:03.068Z,12.00
2022-09-24T07:30:29.813Z,12.10
2022-09-24T07:32:57.007Z,12.10
2022-09-24T07:35:24.031Z,12.20
2022-09-24T07:38:07.178Z,12.20
2022-09-24T07:40:34.382Z,12.30
2022-09-24T07:43:01.098Z,12.40
2022-09-24T07:45:29.426Z,12.40
2022-09-24T07:48:02.634Z,12.40
2022-09-24T07:50:31.482Z,12.30
2022-09-24T07:52:58.465Z,12.30
2022-09-24T07:55:26.544Z,12.40
2022-09-24T07:57:55.097Z,12.40
2022-09-24T08:00:23.790Z,12.40
2022-09-24T08:02:51.850Z,12.50
2022-09-24T08:05:18.550Z,12.50
2022-09-24T08:07:55.638Z,12.50
2022-09-24T08:10:23.555Z,12.50
2022-09-24T08:12:50.250Z,12.60
2022-09-24T08:15:17.111Z,12.70
2022-09-24T08:17:43.750Z,12.60
2022-09-24T08:20:12.188Z,12.70
2022-09-24T08:22:38.848Z,12.80
2022-09-24T08:25:06.136Z,12.90
2022-09-24T08:27:36.164Z,12.90
2022-09-24T08:30:06.688Z,13.00
2022-09-24T08:32:33.332Z,13.00
2022-09-24T08:34:59.975Z,13.10
2022-09-24T08:37:28.752Z,13.20
2022-09-24T08:39:55.804Z,13.30
2022-09-24T08:42:31.342Z,13.30
2022-09-24T08:45:18.326Z,13.40
2022-09-24T08:47:59.161Z,13.40
2022-09-24T08:50:28.929Z,13.40
2022-09-24T08:52:55.491Z,13.50
2022-09-24T08:55:33.863Z,13.60
2022-09-24T08:58:18.631Z,13.60
2022-09-24T09:01:15.925Z,13.60
2022-09-24T09:04:15.432Z,13.70
2022-09-24T09:07:27.342Z,13.80
2022-09-24T09:10:10.467Z,13.90
2022-09-24T09:12:48.527Z,13.90
2022-09-24T09:15:19.978Z,14.00
2022-09-24T09:17:59.495Z,14.10
2022-09-24T09:20:35.328Z,14.20
2022-09-24T09:23:30.579Z,14.30
2022-09-24T09:25:59.652Z,14.30
2022-09-24T09:28:27.575Z,14.40
2022-09-24T09:30:58.907Z,14.50
2022-09-24T09:33:35.482Z,14.60
2022-09-24T09:36:31.376Z,14.60
2022-09-24T09:39:33.626Z,14.70
2022-09-24T09:42:13.278Z,14.80
2022-09-24T09:44:42.455Z,14.80
2022-09-24T09:47:16.348Z,14.80
2022-09-24T09:49:45.482Z,14.90
2022-09-24T09:52:17.970Z,14.90
2022-09-24T09:54:45.621Z,15.00
2022-09-24T09:57:18.174Z,15.00
2022-09-24T09:59:50.447Z,15.10
2022-09-24T10:02:27.881Z,15.10
2022-09-24T10:05:05.865Z,15.10
2022-09-24T10:07:43.707Z,15.20
2022-09-24T10:10:24.103Z,15.20
2022-09-24T10:13:08.357Z,15.20
2022-09-24T10:15:43.217Z,15.30
2022-09-24T10:18:14.508Z,15.30
2022-09-24T10:20:48.137Z,15.30
2022-09-24T10:23:22.742Z,15.40
2022-09-24T10:25:59.409Z,15.40
2022-09-24T10:28:46.135Z,15.40
2022-09-24T10:31:16.724Z,15.40
2022-09-24T10:33:47.152Z,15.50
2022-09-24T10:36:22.211Z,15.50
2022-09-24T10:39:02.305Z,15.50
2022-09-24T10:41:31.652Z,15.50
2022-09-24T10:44:03.151Z,15.60
2022-09-24T10:46:43.603Z,15.60
2022-09-24T10:49:41.435Z,15.60
2022-09-24T10:52:37.978Z,15.80
2022-09-24T10:55:22.195Z,15.90
2022-09-24T10:58:02.843Z,15.90
2022-09-24T11:00:49.041Z,16.00
2022-09-24T11:03:48.775Z,16.00
2022-09-24T11:06:52.769Z,16.00
2022-09-24T11:09:25.418Z,16.00
2022-09-24T11:12:15.259Z,16.00
2022-09-24T11:15:03.017Z,16.00
2022-09-24T11:17:34.581Z,16.10
2022-09-24T11:20:07.464Z,16.10
2022-09-24T11:23:00.193Z,16.10
2022-09-24T11:26:13.086Z,16.20
2022-09-24T11:28:51.259Z,16.30
2022-09-24T11:31:30.304Z,16.30
2022-09-24T11:34:06.040Z,16.30
2022-09-24T11:37:00.520Z,16.40
2022-09-24T11:39:36.050Z,16.40
2022-09-24T11:42:21.398Z,16.40
2022-09-24T11:45:06.756Z,16.50
2022-09-24T11:47:50.283Z,16.40
2022-09-24T11:50:35.949Z,16.50
2022-09-24T11:53:22.806Z,16.50
2022-09-24T11:56:01.141Z,16.50
2022-09-24T11:58:35.756Z,16.50
2022-09-24T12:01:11.028Z,16.60
2022-09-24T12:03:45.305Z,16.60
2022-09-24T12:06:21.815Z,16.60
2022-09-24T12:08:57.204Z,16.60
2022-09-24T12:11:41.208Z,16.60
2022-09-24T12:14:20.507Z,16.70
2022-09-24T12:16:51.349Z,16.70
2022-09-24T12:19:30.661Z,16.80
2022-09-24T12:21:58.296Z,16.80
2022-09-24T12:24:30.510Z,16.80
2022-09-24T12:27:00.011Z,16.90
2022-09-24T12:29:55.491Z,16.90
2022-09-24T12:32:55.783Z,16.90
2022-09-24T12:35:54.993Z,17.00
2022-09-24T12:38:33.233Z,17.00
2022-09-24T12:41:11.201Z,17.00
2022-09-24T12:43:53.686Z,17.00
2022-09-24T12:46:33.618Z,17.00
2022-09-24T12:49:01.035Z,17.00
2022-09-24T12:51:37.009Z,17.10
2022-09-24T12:54:33.055Z,17.10
2022-09-24T12:57:10.720Z,17.10
2022-09-24T13:00:01.191Z,17.10
2022-09-24T13:02:29.072Z,17.10
2022-09-24T13:05:02.100Z,17.10
2022-09-24T13:07:37.538Z,17.10
2022-09-24T13:10:16.177Z,17.10
2022-09-24T13:12:43.624Z,17.10
2022-09-24T13:15:38.591Z,17.10
2022-09-24T13:18:11.030Z,17.10
2022-09-24T13:20:47.626Z,17.10
2022-09-24T13:23:20.285Z,17.20
2022-09-24T13:26:05.002Z,17.20
2022-09-24T13:28:58.392Z,17.20
2022-09-24T13:31:36.567Z,17.20
2022-09-24T13:34:09.527Z,17.20
2022-09-24T13:36:42.199Z,17.20
2022-09-24T13:39:27.692Z,17.20
2022-09-24T13:42:13.946Z,17.20
2022-09-24T13:44:42.322Z,17.20
2022-09-24T13:47:44.626Z,17.20
2022-09-24T13:50:24.146Z,17.20
2022-09-24T13:52:57.676Z,17.20
2022-09-24T13:55:34.425Z,17.10
2022-09-24T13:58:01.263Z,17.10
2022-09-24T14:00:29.905Z,17.10
2022-09-24T14:03:03.356Z,17.10
2022-09-24T14:05:39.843Z,17.10
2022-09-24T14:08:15.397Z,17.10
2022-09-24T14:10:42.754Z,17.10
2022-09-24T14:13:23.423Z,17.10
2022-09-24T14:16:07.058Z,17.10
2022-09-24T14:18:34.037Z,17.10
2022-09-24T14:21:07.332Z,17.10
2022-09-24T14:23:39.929Z,17.10
2022-09-24T14:26:10.616Z,17.10
2022-09-24T14:28:37.471Z,17.10
2022-09-24T14:31:09.050Z,17.10
2022-09-24T14:33:39.101Z,17.10
2022-09-24T14:36:15.683Z,17.10
2022-09-24T14:39:04.789Z,17.10
2022-09-24T14:41:34.108Z,17.20
2022-09-24T14:44:19.667Z,17.20
2022-09-24T14:46:50.363Z,17.20
2022-09-24T14:49:19.751Z,17.20
2022-09-24T14:51:55.908Z,17.20
2022-09-24T14:54:34.705Z,17.20
2022-09-24T14:57:11.462Z,17.20
2022-09-24T14:59:41.632Z,17.20
2022-09-24T15:02:30.706Z,17.20
2022-09-24T15:05:06.190Z,17.20
2022-09-24T15:07:34.812Z,17.20
2022-09-24T15:10:04.549Z,17.20
2022-09-24T15:12:33.796Z,17.20
2022-09-24T15:15:03.924Z,17.20
2022-09-24T15:17:33.666Z,17.20
2022-09-24T15:20:01.732Z,17.20
2022-09-24T15:22:30.469Z,17.20
2022-09-24T15:25:01.942Z,17.20
2022-09-24T15:27:34.604Z,17.10
2022-09-24T15:30:04.514Z,17.20
2022-09-24T15:32:33.691Z,17.20
2022-09-24T15:35:00.370Z,17.20
2022-09-24T15:37:28.791Z,17.20
2022-09-24T15:40:11.276Z,17.20
2022-09-24T15:42:37.957Z,17.20
2022-09-24T15:45:15.042Z,17.20
2022-09-24T15:47:41.646Z,17.20
2022-09-24T15:50:09.167Z,17.20
2022-09-24T15:52:46.845Z,17.20
2022-09-24T15:55:19.039Z,17.20
2022-09-24T15:57:46.830Z,17.20
2022-09-24T16:00:18.917Z,17.20
2022-09-24T16:02:50.218Z,17.20
2022-09-24T16:05:17.676Z,17.20
2022-09-24T16:07:44.829Z,17.20
2022-09-24T16:10:13.726Z,17.10
2022-09-24T16:12:40.866Z,17.10
2022-09-24T16:15:11.551Z,17.10
2022-09-24T16:17:38.552Z,17.10
2022-09-24T16:20:05.729Z,17.10
2022-09-24T16:22:32.324Z,17.10
2022-09-24T16:24:58.990Z,17.10
2022-09-24T16:27:25.654Z,17.10
2022-09-24T16:29:52.263Z,17.10
2022-09-24T16:32:21.950Z,17.00
2022-09-24T16:34:48.525Z,17.00
2022-09-24T16:37:16.764Z,17.00
2022-09-24T16:39:43.798Z,17.00
2022-09-24T16:42:10.385Z,17.00
2022-09-24T16:44:37.046Z,16.90
2022-09-24T16:47:03.794Z,16.90
2022-09-24T16:49:30.373Z,16.90
2022-09-24T16:51:57.069Z,16.90
2022-09-24T16:54:23.917Z,16.90
2022-09-24T16:56:52.025Z,16.80
2022-09-24T16:59:18.955Z,16.80
2022-09-24T17:01:45.678Z,16.80
2022-09-24T17:04:12.789Z,16.70
2022-09-24T17:06:39.586Z,16.80
2022-09-24T17:09:25.089Z,16.90
2022-09-24T17:11:51.803Z,16.90
2022-09-24T17:14:18.543Z,16.90
2022-09-24T17:16:45.824Z,16.90
2022-09-24T17:19:12.514Z,16.90
2022-09-24T17:21:41.380Z,16.80
2022-09-24T17:24:08.788Z,16.70
2022-09-24T17:26:35.849Z,16.70
2022-09-24T17:29:02.544Z,16.50
2022-09-24T17:31:29.548Z,16.30
2022-09-24T17:33:58.007Z,16.10
2022-09-24T17:36:27.228Z,15.80
2022-09-24T17:38:56.054Z,15.60
2022-09-24T17:41:23.326Z,15.40
2022-09-24T17:43:51.260Z,15.30
2022-09-24T17:46:21.750Z,15.30
2022-09-24T17:48:52.024Z,15.20
2022-09-24T17:51:22.633Z,15.10
2022-09-24T17:53:51.028Z,15.00
2022-09-24T17:56:18.100Z,14.90
2022-09-24T17:58:46.889Z,14.70
2022-09-24T18:01:21.156Z,14.70
2022-09-24T18:03:52.037Z,14.60
2022-09-24T18:06:18.796Z,14.60
2022-09-24T18:08:45.989Z,14.60
2022-09-24T18:11:19.054Z,14.60
2022-09-24T18:13:49.887Z,14.60
2022-09-24T18:16:18.031Z,14.60
2022-09-24T18:18:44.757Z,14.50
2022-09-24T18:21:13.575Z,14.50
2022-09-24T18:23:40.498Z,14.40
2022-09-24T18:26:32.352Z,14.40
2022-09-24T18:29:01.580Z,14.40
2022-09-24T18:31:30.732Z,14.50
2022-09-24T18:34:06.726Z,14.40
2022-09-24T18:36:38.710Z,14.40
2022-09-24T18:39:07.536Z,14.30
2022-09-24T18:41:35.152Z,14.50
2022-09-24T18:44:02.877Z,14.50
2022-09-24T18:46:30.890Z,14.50
2022-09-24T18:48:58.720Z,14.40
2022-09-24T18:51:30.926Z,14.40
2022-09-24T18:54:00.158Z,14.40
2022-09-24T18:56:27.322Z,14.40
2022-09-24T18:59:03.667Z,14.40
2022-09-24T19:01:32.679Z,14.40
2022-09-24T19:04:00.371Z,14.40
2022-09-24T19:06:28.697Z,14.40
2022-09-24T19:08:55.807Z,14.40
2022-09-24T19:11:22.743Z,14.40
2022-09-24T19:13:51.507Z,14.40
2022-09-24T19:16:20.197Z,14.30
2022-09-24T19:18:47.028Z,14.30
2022-09-24T19:21:15.412Z,14.40
2022-09-24T19:23:47.689Z,14.40
2022-09-24T19:26:18.461Z,14.30
2022-09-24T19:28:46.056Z,14.30
2022-09-24T19:31:15.286Z,14.30
2022-09-24T19:33:42.116Z,14.30
2022-09-24T19:36:09.653Z,14.30
2022-09-24T19:38:37.687Z,14.30
2022-09-24T19:41:19.056Z,14.30
2022-09-24T19:43:45.659Z,14.30
2022-09-24T19:49:07.516Z,14.40
2022-09-24T19:51:34.916Z,14.40
2022-09-24T19:54:07.417Z,14.40
2022-09-24T19:56:35.304Z,14.40
2022-09-24T19:59:02.662Z,14.40
2022-09-24T20:01:31.663Z,14.30
2022-09-24T20:04:01.725Z,14.30
2022-09-24T20:06:29.028Z,14.30
2022-09-24T20:08:56.325Z,14.30
2022-09-24T20:11:24.777Z,14.30
2022-09-24T20:13:53.239Z,14.30
2022-09-24T20:16:22.162Z,14.30
2022-09-24T20:18:50.918Z,14.20
2022-09-24T20:21:18.800Z,14.20
2022-09-24T20:23:47.173Z,14.20
2022-09-24T20:26:34.297Z,14.20
2022-09-24T20:29:02.101Z,14.20
2022-09-24T20:31:29.020Z,14.20
2022-09-24T20:33:55.729Z,14.30
2022-09-24T20:36:24.764Z,14.30
2022-09-24T20:38:52.255Z,14.30
2022-09-24T20:41:22.532Z,14.30
2022-09-24T20:43:50.031Z,14.30
2022-09-24T20:46:24.243Z,14.20
2022-09-24T20:48:52.625Z,14.20
2022-09-24T20:51:21.131Z,14.20
2022-09-24T20:53:48.959Z,14.20
2022-09-24T20:56:17.163Z,14.20
2022-09-24T20:58:44.322Z,14.20
2022-09-24T21:01:11.775Z,14.20
2022-09-24T21:03:45.339Z,14.30
2022-09-24T21:06:14.645Z,14.30
2022-09-24T21:08:43.731Z,14.20
2022-09-24T21:11:13.222Z,14.30
2022-09-24T21:13:41.678Z,14.30
2022-09-24T21:16:09.472Z,14.30
2022-09-24T21:18:40.329Z,14.30
2022-09-24T21:21:11.496Z,14.30
2022-09-24T21:23:39.628Z,14.30
2022-09-24T21:26:17.899Z,14.30
2022-09-24T21:28:48.728Z,14.30
2022-09-24T21:31:18.508Z,14.30
2022-09-24T21:33:47.247Z,14.20
2022-09-24T21:36:19.228Z,14.20
2022-09-24T21:38:54.714Z,14.10
2022-09-24T21:41:23.194Z,14.10
2022-09-24T21:43:50.038Z,14.10
2022-09-24T21:46:16.976Z,14.10
2022-09-24T21:48:43.644Z,14.10
2022-09-24T21:51:20.056Z,14.10
2022-09-24T21:53:47.414Z,14.00
2022-09-24T21:56:14.427Z,14.00
2022-09-24T21:58:41.004Z,14.10
2022-09-24T22:01:14.657Z,14.10
2022-09-24T22:03:41.457Z,14.00
2022-09-24T22:06:08.405Z,14.00
2022-09-24T22:08:35.062Z,14.00
2022-09-24T22:11:04.642Z,14.00
2022-09-24T22:13:32.722Z,14.00
2022-09-24T22:16:00.508Z,14.00
2022-09-24T22:18:27.958Z,13.90
2022-09-24T22:20:56.007Z,13.90
2022-09-24T22:23:23.143Z,13.90
2022-09-24T22:25:57.668Z,13.90
2022-09-24T22:28:25.725Z,13.90
2022-09-24T22:30:53.519Z,14.00
2022-09-24T22:33:39.200Z,14.00
2022-09-24T22:36:06.441Z,14.10
2022-09-24T22:38:33.760Z,14.00
2022-09-24T22:41:01.308Z,14.00
2022-09-24T22:43:31.895Z,14.10
2022-09-24T22:46:06.839Z,14.10
2022-09-24T22:48:34.191Z,14.20
2022-09-24T22:51:01.692Z,14.20
2022-09-24T22:53:29.024Z,14.20
2022-09-24T22:56:14.060Z,14.30
2022-09-24T22:58:44.748Z,14.30
2022-09-24T23:01:16.694Z,14.20
2022-09-24T23:03:44.839Z,14.20
2022-09-24T23:06:11.872Z,14.10
2022-09-24T23:08:40.709Z,14.20
2022-09-24T23:11:18.907Z,14.20
2022-09-24T23:13:50.393Z,14.20
2022-09-24T23:16:19.504Z,14.20
2022-09-24T23:18:48.015Z,14.10
2022-09-24T23:21:16.849Z,14.10
2022-09-24T23:23:43.969Z,14.10
2022-09-24T23:26:17.325Z,14.00
2022-09-24T23:28:52.674Z,14.00
2022-09-24T23:31:25.080Z,14.10
2022-09-24T23:33:53.183Z,14.10
2022-09-24T23:36:19.864Z,14.10
2022-09-24T23:38:47.223Z,14.10
2022-09-24T23:41:14.504Z,14.00
2022-09-24T23:43:41.980Z,14.00
2022-09-24T23:46:09.951Z,14.00
2022-09-24T23:48:36.912Z,14.10
2022-09-24T23:51:04.343Z,14.10
2022-09-24T23:53:31.154Z,14.20
2022-09-24T23:55:57.771Z,14.20
2022-09-24T23:58:25.117Z,14.10
